RYR2HU EIDW-LFBH
Flight info
| Callsign | RYR2HU |
|---|---|
| Flight time | 1h 25m |
| Altitude | 37000 |
| Route | PESIT4E PESIT DCT BAKUR DCT GUBJE DCT GISOK DCT TACQI DCT MANIG DCT BADUR/N0415F310 DCT KORER UM616 NTS/N0336F190 A25 LUSON |
| Aircraft | B738/M-SDE2E3FGHIRWXY/LB1 |
Departure
| Time | 2026-05-04 15:41 |
|---|---|
| Airport | Dublin Airport (EIDW) |
Arrival
| Time | 2026-05-04 17:07 |
|---|---|
| Airport | La Rochelle Île de Ré Airport (LFBH) |
| Time | Latitude | Longitude | Altitude | Speed | Heading |
|---|---|---|---|---|---|
| 2026-05-04 15:07 | 53.43099 | -6.24764 | 210 ft | 0 kts | 185° |
| 2026-05-04 15:28 | 53.43110 | -6.24762 | 220 ft | 4 kts | 186° |
| 2026-05-04 15:29 | 53.43137 | -6.24756 | 215 ft | 4 kts | 190° |
| 2026-05-04 15:30 | 53.43200 | -6.24699 | 213 ft | 0 kts | 275° |
| 2026-05-04 15:32 | 53.43203 | -6.24764 | 213 ft | 10 kts | 272° |
| 2026-05-04 15:32 | 53.43220 | -6.25094 | 214 ft | 15 kts | 277° |
| 2026-05-04 15:33 | 53.43200 | -6.25419 | 210 ft | 14 kts | 245° |
| 2026-05-04 15:34 | 53.43047 | -6.25725 | 211 ft | 13 kts | 159° |
| 2026-05-04 15:34 | 53.42958 | -6.25661 | 213 ft | 16 kts | 156° |
| 2026-05-04 15:34 | 53.42712 | -6.25483 | 213 ft | 18 kts | 158° |
| 2026-05-04 15:35 | 53.42520 | -6.25721 | 210 ft | 17 kts | 224° |
| 2026-05-04 15:35 | 53.42436 | -6.25862 | 212 ft | 17 kts | 225° |
| 2026-05-04 15:35 | 53.42355 | -6.26000 | 210 ft | 16 kts | 225° |
| 2026-05-04 15:36 | 53.42267 | -6.26316 | 210 ft | 15 kts | 274° |
| 2026-05-04 15:36 | 53.42276 | -6.26495 | 215 ft | 17 kts | 275° |
| 2026-05-04 15:36 | 53.42289 | -6.26723 | 210 ft | 23 kts | 276° |
| 2026-05-04 15:37 | 53.42306 | -6.27014 | 213 ft | 26 kts | 275° |
| 2026-05-04 15:37 | 53.42322 | -6.27310 | 214 ft | 25 kts | 275° |
| 2026-05-04 15:37 | 53.42337 | -6.27587 | 218 ft | 23 kts | 275° |
| 2026-05-04 15:37 | 53.42352 | -6.27850 | 214 ft | 22 kts | 275° |
| 2026-05-04 15:38 | 53.42366 | -6.28106 | 215 ft | 22 kts | 275° |
| 2026-05-04 15:38 | 53.42379 | -6.28355 | 218 ft | 21 kts | 275° |
| 2026-05-04 15:38 | 53.42392 | -6.28596 | 210 ft | 20 kts | 275° |
| 2026-05-04 15:38 | 53.42405 | -6.28839 | 210 ft | 20 kts | 275° |
| 2026-05-04 15:39 | 53.42374 | -6.29056 | 210 ft | 20 kts | 216° |
| 2026-05-04 15:39 | 53.42242 | -6.29036 | 211 ft | 16 kts | 129° |
| 2026-05-04 15:39 | 53.42237 | -6.28903 | 209 ft | 0 kts | 96° |
| 2026-05-04 15:40 | 53.42237 | -6.28897 | 217 ft | 3 kts | 96° |
| 2026-05-04 15:40 | 53.42216 | -6.28532 | 213 ft | 66 kts | 95° |
| 2026-05-04 15:41 | 53.42154 | -6.27392 | 209 ft | 128 kts | 95° |
| 2026-05-04 15:41 | 53.42058 | -6.25646 | 356 ft | 164 kts | 95° |
| 2026-05-04 15:41 | 53.41994 | -6.23712 | 956 ft | 171 kts | 91° |
| 2026-05-04 15:41 | 53.41967 | -6.21603 | 1502 ft | 188 kts | 91° |
| 2026-05-04 15:42 | 53.41906 | -6.19327 | 2090 ft | 207 kts | 93° |
| 2026-05-04 15:42 | 53.41720 | -6.17061 | 2265 ft | 229 kts | 95° |
| 2026-05-04 15:42 | 53.41503 | -6.14364 | 2724 ft | 240 kts | 95° |
| 2026-05-04 15:42 | 53.41305 | -6.11464 | 3032 ft | 259 kts | 94° |
| 2026-05-04 15:43 | 53.41119 | -6.08426 | 3816 ft | 263 kts | 94° |
| 2026-05-04 15:43 | 53.40939 | -6.05359 | 4618 ft | 268 kts | 95° |
| 2026-05-04 15:43 | 53.40374 | -6.02396 | 5439 ft | 271 kts | 123° |
| 2026-05-04 15:43 | 53.39033 | -6.00170 | 6170 ft | 275 kts | 151° |
| 2026-05-04 15:44 | 53.37250 | -5.99087 | 6969 ft | 274 kts | 169° |
| 2026-05-04 15:44 | 53.35361 | -5.98544 | 7714 ft | 278 kts | 172° |
| 2026-05-04 15:44 | 53.33435 | -5.98093 | 8474 ft | 282 kts | 173° |
| 2026-05-04 15:44 | 53.31479 | -5.97653 | 9210 ft | 286 kts | 173° |
| 2026-05-04 15:45 | 53.29489 | -5.97202 | 9948 ft | 291 kts | 172° |
| 2026-05-04 15:45 | 53.27492 | -5.96741 | 10502 ft | 300 kts | 172° |
| 2026-05-04 15:45 | 53.25341 | -5.96236 | 10668 ft | 324 kts | 172° |
| 2026-05-04 15:45 | 53.23050 | -5.95689 | 11057 ft | 338 kts | 172° |
| 2026-05-04 15:46 | 53.20699 | -5.95122 | 11664 ft | 344 kts | 172° |
| 2026-05-04 15:46 | 53.18320 | -5.94545 | 12419 ft | 347 kts | 172° |
| 2026-05-04 15:46 | 53.15921 | -5.93961 | 13150 ft | 350 kts | 172° |
| 2026-05-04 15:46 | 53.13493 | -5.93368 | 13881 ft | 355 kts | 172° |
| 2026-05-04 15:47 | 53.11835 | -5.92963 | 14312 ft | 358 kts | 172° |
| 2026-05-04 15:47 | 53.09358 | -5.92359 | 15017 ft | 361 kts | 171° |
| 2026-05-04 15:47 | 53.06890 | -5.91756 | 15666 ft | 366 kts | 171° |
| 2026-05-04 15:47 | 53.04365 | -5.91140 | 16434 ft | 367 kts | 171° |
| 2026-05-04 15:48 | 53.01818 | -5.90520 | 17077 ft | 373 kts | 171° |
| 2026-05-04 15:48 | 52.99238 | -5.89892 | 17807 ft | 375 kts | 170° |
| 2026-05-04 15:48 | 52.94009 | -5.88621 | 19034 ft | 383 kts | 171° |
| 2026-05-04 15:49 | 52.91364 | -5.87980 | 19652 ft | 386 kts | 170° |
| 2026-05-04 15:49 | 52.88697 | -5.87335 | 20246 ft | 389 kts | 170° |
| 2026-05-04 15:49 | 52.86007 | -5.86685 | 20826 ft | 393 kts | 169° |
| 2026-05-04 15:49 | 52.83295 | -5.86030 | 21422 ft | 395 kts | 169° |
| 2026-05-04 15:50 | 52.80562 | -5.85371 | 21971 ft | 399 kts | 169° |
| 2026-05-04 15:50 | 52.77801 | -5.84705 | 22496 ft | 403 kts | 168° |
| 2026-05-04 15:50 | 52.75010 | -5.84033 | 23024 ft | 407 kts | 168° |
| 2026-05-04 15:50 | 52.72196 | -5.83357 | 23553 ft | 411 kts | 168° |
| 2026-05-04 15:51 | 52.69357 | -5.82676 | 23993 ft | 414 kts | 168° |
| 2026-05-04 15:51 | 52.66496 | -5.81991 | 24430 ft | 417 kts | 168° |
| 2026-05-04 15:51 | 52.63612 | -5.81301 | 24859 ft | 420 kts | 168° |
| 2026-05-04 15:51 | 52.60708 | -5.80608 | 25281 ft | 424 kts | 167° |
| 2026-05-04 15:52 | 52.57772 | -5.79906 | 25637 ft | 428 kts | 167° |
| 2026-05-04 15:52 | 52.54811 | -5.79201 | 26052 ft | 431 kts | 167° |
| 2026-05-04 15:52 | 52.51836 | -5.78493 | 26463 ft | 434 kts | 167° |
| 2026-05-04 15:52 | 52.48838 | -5.77782 | 26854 ft | 437 kts | 167° |
| 2026-05-04 15:53 | 52.45815 | -5.77064 | 27227 ft | 440 kts | 167° |
| 2026-05-04 15:53 | 52.42774 | -5.76344 | 27599 ft | 443 kts | 167° |
| 2026-05-04 15:53 | 52.39716 | -5.75582 | 27958 ft | 445 kts | 164° |
| 2026-05-04 15:53 | 52.36728 | -5.74347 | 28357 ft | 443 kts | 158° |
| 2026-05-04 15:54 | 52.33789 | -5.72838 | 28747 ft | 444 kts | 156° |
| 2026-05-04 15:54 | 52.30838 | -5.71297 | 29082 ft | 447 kts | 157° |
| 2026-05-04 15:54 | 52.27852 | -5.69799 | 29399 ft | 451 kts | 157° |
| 2026-05-04 15:54 | 52.24836 | -5.68330 | 29723 ft | 454 kts | 157° |
| 2026-05-04 15:55 | 52.21854 | -5.66667 | 30035 ft | 452 kts | 152° |
| 2026-05-04 15:55 | 52.18945 | -5.64717 | 30325 ft | 453 kts | 150° |
| 2026-05-04 15:55 | 52.16051 | -5.62678 | 30632 ft | 453 kts | 150° |
| 2026-05-04 15:55 | 52.13160 | -5.60648 | 31118 ft | 450 kts | 152° |
| 2026-05-04 15:56 | 52.10332 | -5.58707 | 31699 ft | 444 kts | 152° |
| 2026-05-04 15:56 | 52.07487 | -5.56789 | 32142 ft | 442 kts | 153° |
| 2026-05-04 15:56 | 52.04639 | -5.54881 | 32441 ft | 443 kts | 153° |
| 2026-05-04 15:56 | 52.01817 | -5.52858 | 32743 ft | 442 kts | 150° |
| 2026-05-04 15:57 | 51.99049 | -5.50702 | 33129 ft | 440 kts | 149° |
| 2026-05-04 15:57 | 51.96315 | -5.48508 | 33546 ft | 438 kts | 149° |
| 2026-05-04 15:57 | 51.93594 | -5.46314 | 33927 ft | 436 kts | 149° |
| 2026-05-04 15:57 | 51.90875 | -5.44133 | 34222 ft | 436 kts | 150° |
| 2026-05-04 15:58 | 51.88146 | -5.41961 | 34450 ft | 437 kts | 151° |
| 2026-05-04 15:58 | 51.85411 | -5.39801 | 34663 ft | 438 kts | 151° |
| 2026-05-04 15:58 | 51.82673 | -5.37650 | 34931 ft | 438 kts | 151° |
| 2026-05-04 15:58 | 51.79934 | -5.35504 | 35180 ft | 438 kts | 152° |
| 2026-05-04 15:59 | 51.77191 | -5.33360 | 35395 ft | 438 kts | 152° |
| 2026-05-04 15:59 | 51.74445 | -5.31217 | 35619 ft | 439 kts | 152° |
| 2026-05-04 15:59 | 51.71696 | -5.29074 | 35862 ft | 439 kts | 152° |
| 2026-05-04 15:59 | 51.68955 | -5.26939 | 36107 ft | 439 kts | 153° |
| 2026-05-04 16:00 | 51.66199 | -5.24796 | 36321 ft | 439 kts | 153° |
| 2026-05-04 16:00 | 51.63447 | -5.22658 | 36541 ft | 439 kts | 153° |
| 2026-05-04 16:00 | 51.60696 | -5.20523 | 36764 ft | 439 kts | 153° |
| 2026-05-04 16:00 | 51.57940 | -5.18387 | 36971 ft | 439 kts | 153° |
| 2026-05-04 16:01 | 51.52397 | -5.14098 | 37021 ft | 444 kts | 152° |
| 2026-05-04 16:01 | 51.47331 | -5.08567 | 37024 ft | 438 kts | 137° |
| 2026-05-04 16:02 | 51.42850 | -5.02113 | 37014 ft | 434 kts | 137° |
| 2026-05-04 16:03 | 51.36133 | -4.92512 | 37009 ft | 429 kts | 137° |
| 2026-05-04 16:03 | 51.31658 | -4.86210 | 37013 ft | 428 kts | 138° |
| 2026-05-04 16:04 | 51.27180 | -4.79933 | 37006 ft | 429 kts | 138° |
| 2026-05-04 16:04 | 51.20434 | -4.70509 | 37013 ft | 431 kts | 138° |
| 2026-05-04 16:05 | 51.15908 | -4.64204 | 37004 ft | 433 kts | 138° |
| 2026-05-04 16:06 | 51.09078 | -4.54719 | 37001 ft | 435 kts | 138° |
| 2026-05-04 16:07 | 50.99467 | -4.42979 | 37005 ft | 438 kts | 147° |
| 2026-05-04 16:08 | 50.89080 | -4.32858 | 36997 ft | 438 kts | 147° |
| 2026-05-04 16:09 | 50.76186 | -4.20108 | 36987 ft | 436 kts | 147° |
| 2026-05-04 16:10 | 50.65943 | -4.10010 | 36996 ft | 435 kts | 148° |
| 2026-05-04 16:11 | 50.55683 | -3.99951 | 37000 ft | 434 kts | 148° |
| 2026-05-04 16:12 | 50.40290 | -3.84958 | 36991 ft | 434 kts | 148° |
| 2026-05-04 16:13 | 50.30009 | -3.75008 | 36997 ft | 435 kts | 148° |
| 2026-05-04 16:14 | 50.19698 | -3.65081 | 36991 ft | 435 kts | 149° |
| 2026-05-04 16:16 | 50.06799 | -3.52733 | 36999 ft | 435 kts | 149° |
| 2026-05-04 16:17 | 49.93896 | -3.40459 | 36995 ft | 435 kts | 149° |
| 2026-05-04 16:18 | 49.83583 | -3.30702 | 36993 ft | 434 kts | 149° |
| 2026-05-04 16:19 | 49.75464 | -3.24888 | 36987 ft | 431 kts | 169° |
| 2026-05-04 16:19 | 49.69528 | -3.23186 | 36994 ft | 431 kts | 170° |
| 2026-05-04 16:20 | 49.54834 | -3.19029 | 36991 ft | 430 kts | 169° |
| 2026-05-04 16:22 | 49.40144 | -3.14774 | 36985 ft | 429 kts | 169° |
| 2026-05-04 16:23 | 49.22560 | -3.09714 | 36984 ft | 428 kts | 169° |
| 2026-05-04 16:25 | 49.05018 | -3.04704 | 36986 ft | 427 kts | 169° |
| 2026-05-04 16:26 | 48.84539 | -2.98900 | 36986 ft | 428 kts | 170° |
| 2026-05-04 16:28 | 48.69880 | -2.94686 | 36989 ft | 429 kts | 166° |
| 2026-05-04 16:29 | 48.49808 | -2.85623 | 36976 ft | 431 kts | 164° |
| 2026-05-04 16:31 | 48.35435 | -2.79254 | 36973 ft | 431 kts | 165° |
| 2026-05-04 16:31 | 48.26847 | -2.75469 | 36799 ft | 434 kts | 164° |
| 2026-05-04 16:32 | 48.18259 | -2.71693 | 35702 ft | 421 kts | 165° |
| 2026-05-04 16:33 | 48.12680 | -2.69249 | 34894 ft | 414 kts | 164° |
| 2026-05-04 16:33 | 48.07201 | -2.66855 | 34124 ft | 407 kts | 164° |
| 2026-05-04 16:34 | 48.01818 | -2.64506 | 33258 ft | 400 kts | 164° |
| 2026-05-04 16:34 | 47.99156 | -2.63347 | 32857 ft | 397 kts | 164° |
| 2026-05-04 16:35 | 47.91305 | -2.59935 | 31698 ft | 387 kts | 164° |
| 2026-05-04 16:35 | 47.84519 | -2.56994 | 30688 ft | 376 kts | 164° |
| 2026-05-04 16:36 | 47.82020 | -2.55913 | 30315 ft | 372 kts | 164° |
| 2026-05-04 16:36 | 47.77102 | -2.53789 | 29537 ft | 363 kts | 164° |
| 2026-05-04 16:37 | 47.72320 | -2.51728 | 28768 ft | 352 kts | 165° |
| 2026-05-04 16:37 | 47.70069 | -2.50368 | 28415 ft | 348 kts | 154° |
| 2026-05-04 16:37 | 47.66191 | -2.46168 | 27688 ft | 345 kts | 138° |
| 2026-05-04 16:38 | 47.63044 | -2.40848 | 26939 ft | 340 kts | 135° |
| 2026-05-04 16:39 | 47.58498 | -2.32974 | 25861 ft | 331 kts | 135° |
| 2026-05-04 16:39 | 47.55522 | -2.27871 | 25164 ft | 325 kts | 135° |
| 2026-05-04 16:40 | 47.52575 | -2.22844 | 24477 ft | 321 kts | 135° |
| 2026-05-04 16:40 | 47.49685 | -2.17927 | 23804 ft | 317 kts | 135° |
| 2026-05-04 16:41 | 47.46800 | -2.13029 | 23056 ft | 314 kts | 135° |
| 2026-05-04 16:41 | 47.42540 | -2.05809 | 22032 ft | 308 kts | 135° |
| 2026-05-04 16:42 | 47.38282 | -1.98614 | 21044 ft | 312 kts | 134° |
| 2026-05-04 16:43 | 47.35440 | -1.93822 | 20378 ft | 308 kts | 135° |
| 2026-05-04 16:43 | 47.32634 | -1.89090 | 19727 ft | 305 kts | 134° |
| 2026-05-04 16:43 | 47.31245 | -1.86747 | 19392 ft | 303 kts | 134° |
| 2026-05-04 16:44 | 47.25749 | -1.77494 | 18120 ft | 297 kts | 134° |
| 2026-05-04 16:45 | 47.23037 | -1.72940 | 17433 ft | 294 kts | 134° |
| 2026-05-04 16:46 | 47.18969 | -1.66124 | 16516 ft | 297 kts | 133° |
| 2026-05-04 16:46 | 47.16088 | -1.61758 | 15821 ft | 297 kts | 148° |
| 2026-05-04 16:47 | 47.12275 | -1.59643 | 15219 ft | 293 kts | 165° |
| 2026-05-04 16:47 | 47.08344 | -1.58132 | 14587 ft | 291 kts | 165° |
| 2026-05-04 16:48 | 47.02509 | -1.55869 | 13650 ft | 288 kts | 165° |
| 2026-05-04 16:48 | 47.00575 | -1.55109 | 13308 ft | 287 kts | 164° |
| 2026-05-04 16:49 | 46.96736 | -1.53594 | 12674 ft | 284 kts | 164° |
| 2026-05-04 16:49 | 46.92945 | -1.52095 | 12085 ft | 280 kts | 164° |
| 2026-05-04 16:50 | 46.89202 | -1.50615 | 11489 ft | 277 kts | 164° |
| 2026-05-04 16:50 | 46.85477 | -1.49143 | 10914 ft | 278 kts | 163° |
| 2026-05-04 16:51 | 46.81753 | -1.47674 | 10334 ft | 275 kts | 164° |
| 2026-05-04 16:51 | 46.79909 | -1.46946 | 10106 ft | 272 kts | 164° |
| 2026-05-04 16:51 | 46.76276 | -1.45515 | 9669 ft | 273 kts | 163° |
| 2026-05-04 16:52 | 46.72626 | -1.44080 | 9070 ft | 270 kts | 163° |
| 2026-05-04 16:52 | 46.70817 | -1.43369 | 8785 ft | 269 kts | 163° |
| 2026-05-04 16:53 | 46.67225 | -1.41958 | 8233 ft | 267 kts | 164° |
| 2026-05-04 16:53 | 46.61823 | -1.39842 | 7393 ft | 269 kts | 163° |
| 2026-05-04 16:54 | 46.60018 | -1.39135 | 7108 ft | 268 kts | 164° |
| 2026-05-04 16:55 | 46.52849 | -1.36237 | 5988 ft | 267 kts | 163° |
| 2026-05-04 16:55 | 46.49519 | -1.34122 | 5382 ft | 262 kts | 130° |
| 2026-05-04 16:56 | 46.47385 | -1.29923 | 4871 ft | 258 kts | 124° |
| 2026-05-04 16:56 | 46.44230 | -1.23541 | 4025 ft | 259 kts | 124° |
| 2026-05-04 16:57 | 46.43177 | -1.21427 | 3758 ft | 258 kts | 124° |
| 2026-05-04 16:57 | 46.41075 | -1.17218 | 3227 ft | 257 kts | 125° |
| 2026-05-04 16:58 | 46.37944 | -1.10978 | 2536 ft | 253 kts | 125° |
| 2026-05-04 16:58 | 46.36910 | -1.08921 | 2495 ft | 252 kts | 125° |
| 2026-05-04 16:59 | 46.34812 | -1.04753 | 2511 ft | 260 kts | 125° |
| 2026-05-04 17:00 | 46.30635 | -0.96468 | 2476 ft | 240 kts | 125° |
| 2026-05-04 17:00 | 46.27690 | -0.91023 | 2447 ft | 225 kts | 152° |
| 2026-05-04 17:01 | 46.24813 | -0.91445 | 2495 ft | 215 kts | 208° |
| 2026-05-04 17:01 | 46.22216 | -0.93429 | 2474 ft | 205 kts | 211° |
| 2026-05-04 17:02 | 46.19894 | -0.95229 | 2480 ft | 183 kts | 211° |
| 2026-05-04 17:02 | 46.17682 | -0.97000 | 2481 ft | 180 kts | 224° |
| 2026-05-04 17:03 | 46.17159 | -0.98493 | 2493 ft | 165 kts | 276° |
| 2026-05-04 17:03 | 46.17362 | -1.00137 | 2500 ft | 171 kts | 279° |
| 2026-05-04 17:03 | 46.17470 | -1.03619 | 2318 ft | 174 kts | 275° |
| 2026-05-04 17:04 | 46.17559 | -1.06917 | 1843 ft | 155 kts | 275° |
| 2026-05-04 17:04 | 46.17649 | -1.10055 | 1398 ft | 158 kts | 275° |
| 2026-05-04 17:05 | 46.17736 | -1.13134 | 966 ft | 143 kts | 274° |
| 2026-05-04 17:05 | 46.17814 | -1.15848 | 536 ft | 132 kts | 274° |
| 2026-05-04 17:06 | 46.17884 | -1.18519 | 160 ft | 136 kts | 274° |
| 2026-05-04 17:06 | 46.17929 | -1.19838 | 67 ft | 118 kts | 277° |
| 2026-05-04 17:07 | 46.17954 | -1.20918 | 64 ft | 6 kts | 305° |
| 2026-05-04 17:07 | 46.17964 | -1.20918 | 62 ft | 2 kts | 33° |
| 2026-05-04 17:07 | 46.17961 | -1.20832 | 66 ft | 14 kts | 93° |
| 2026-05-04 17:07 | 46.17955 | -1.20645 | 66 ft | 20 kts | 92° |
| 2026-05-04 17:08 | 46.17950 | -1.20447 | 70 ft | 19 kts | 92° |
| 2026-05-04 17:08 | 46.17939 | -1.20072 | 70 ft | 18 kts | 92° |
| 2026-05-04 17:08 | 46.17933 | -1.19888 | 75 ft | 20 kts | 92° |
| 2026-05-04 17:09 | 46.17925 | -1.19659 | 72 ft | 24 kts | 92° |
| 2026-05-04 17:09 | 46.17891 | -1.19529 | 72 ft | 16 kts | 159° |
| 2026-05-04 17:09 | 46.17768 | -1.19522 | 69 ft | 12 kts | 182° |
| 2026-05-04 17:10 | 46.17691 | -1.19363 | 62 ft | 9 kts | 100° |
| 2026-05-04 17:10 | 46.17642 | -1.19349 | 65 ft | 0 kts | 185° |
| 2026-05-04 17:11 | 46.17658 | -1.19383 | 57 ft | 0 kts | 318° |